Robles del Rio, California
Current Conditions -  °F | °C
As of 8:54 AM on Saturday 22 Nov 2014 (Local Time) from KMRY Reporting Station
Light Rain Light Rain  
Wind Chill: 62°   Ceiling: 2100
Heat Index: 62°   Visibility: 3mi
Dew Point: 59°   Wind: 8mph
Humidity: 90%   Direction: 200°SSW
Pressure: 30.15"   Gusts: NA
Location:  36.407°N, 121.657°W
Report Text: KMRY 221654Z 20007KT 3SM -RA BR SCT010 BKN021 OVC038 17/15 A3015 RMK AO2 SLP220 P0000 T01670150
Loading
Personal Weather Stations






























Interactive Weather Map New forecast layout! Learn more

10-Day Weather Forecast

Advertisements
Track Severe Weather on mobile